sensor_id;sensor_type;location;lat;lon;timestamp;temperature;humidity
77496;SHT31;66600;48.378;9.948;2023-01-05T00:02:15;8.24;88.05
77496;SHT31;66600;48.378;9.948;2023-01-05T00:04:40;8.33;87.69
77496;SHT31;66600;48.378;9.948;2023-01-05T00:07:05;8.34;87.53
77496;SHT31;66600;48.378;9.948;2023-01-05T00:09:31;8.36;87.47
77496;SHT31;66600;48.378;9.948;2023-01-05T00:11:56;8.40;87.41
77496;SHT31;66600;48.378;9.948;2023-01-05T00:14:40;8.38;87.55
77496;SHT31;66600;48.378;9.948;2023-01-05T00:17:24;8.41;87.49
77496;SHT31;66600;48.378;9.948;2023-01-05T00:20:16;8.47;87.17
77496;SHT31;66600;48.378;9.948;2023-01-05T00:23:01;8.47;87.32
77496;SHT31;66600;48.378;9.948;2023-01-05T00:25:31;8.51;87.12
77496;SHT31;66600;48.378;9.948;2023-01-05T00:27:58;8.55;87.12
77496;SHT31;66600;48.378;9.948;2023-01-05T00:30:33;8.54;87.21
77496;SHT31;66600;48.378;9.948;2023-01-05T00:32:58;8.54;87.34
77496;SHT31;66600;48.378;9.948;2023-01-05T00:35:24;8.54;87.72
77496;SHT31;66600;48.378;9.948;2023-01-05T00:37:49;8.58;87.55
77496;SHT31;66600;48.378;9.948;2023-01-05T00:40:17;8.61;87.45
77496;SHT31;66600;48.378;9.948;2023-01-05T00:42:43;8.58;87.48
77496;SHT31;66600;48.378;9.948;2023-01-05T00:45:11;8.62;87.39
77496;SHT31;66600;48.378;9.948;2023-01-05T00:47:37;8.65;87.19
77496;SHT31;66600;48.378;9.948;2023-01-05T00:50:03;8.60;87.27
77496;SHT31;66600;48.378;9.948;2023-01-05T00:52:28;8.65;87.05
77496;SHT31;66600;48.378;9.948;2023-01-05T00:54:54;8.61;87.30
77496;SHT31;66600;48.378;9.948;2023-01-05T00:57:19;8.69;87.06
77496;SHT31;66600;48.378;9.948;2023-01-05T00:59:44;8.72;87.01
77496;SHT31;66600;48.378;9.948;2023-01-05T01:02:10;8.65;87.56
77496;SHT31;66600;48.378;9.948;2023-01-05T01:04:35;8.67;87.68
77496;SHT31;66600;48.378;9.948;2023-01-05T01:07:01;8.71;87.32
77496;SHT31;66600;48.378;9.948;2023-01-05T01:09:28;8.71;87.21
77496;SHT31;66600;48.378;9.948;2023-01-05T01:11:53;8.64;88.03
77496;SHT31;66600;48.378;9.948;2023-01-05T01:14:18;8.68;87.79
77496;SHT31;66600;48.378;9.948;2023-01-05T01:16:44;8.68;87.81
77496;SHT31;66600;48.378;9.948;2023-01-05T01:19:14;8.65;87.87
77496;SHT31;66600;48.378;9.948;2023-01-05T01:21:40;8.73;87.29
77496;SHT31;66600;48.378;9.948;2023-01-05T01:24:06;8.72;87.51
77496;SHT31;66600;48.378;9.948;2023-01-05T01:26:31;8.69;88.18
77496;SHT31;66600;48.378;9.948;2023-01-05T01:28:57;8.69;88.53
77496;SHT31;66600;48.378;9.948;2023-01-05T01:31:22;8.65;89.03
77496;SHT31;66600;48.378;9.948;2023-01-05T01:33:48;8.60;89.58
77496;SHT31;66600;48.378;9.948;2023-01-05T01:36:13;8.52;90.04
77496;SHT31;66600;48.378;9.948;2023-01-05T01:38:39;8.57;90.08
77496;SHT31;66600;48.378;9.948;2023-01-05T01:41:04;8.54;90.19
77496;SHT31;66600;48.378;9.948;2023-01-05T01:46:09;8.51;90.87
77496;SHT31;66600;48.378;9.948;2023-01-05T01:48:36;8.51;90.66
77496;SHT31;66600;48.378;9.948;2023-01-05T01:51:06;8.51;91.06
77496;SHT31;66600;48.378;9.948;2023-01-05T01:53:35;8.50;90.80
77496;SHT31;66600;48.378;9.948;2023-01-05T01:56:03;8.50;90.99
77496;SHT31;66600;48.378;9.948;2023-01-05T01:58:31;8.54;91.01
77496;SHT31;66600;48.378;9.948;2023-01-05T02:00:57;8.55;90.97
77496;SHT31;66600;48.378;9.948;2023-01-05T02:03:25;8.54;91.19
77496;SHT31;66600;48.378;9.948;2023-01-05T02:05:50;8.54;91.15
77496;SHT31;66600;48.378;9.948;2023-01-05T02:08:16;8.58;90.92
77496;SHT31;66600;48.378;9.948;2023-01-05T02:14:14;8.61;90.58
77496;SHT31;66600;48.378;9.948;2023-01-05T02:16:51;8.62;90.58
77496;SHT31;66600;48.378;9.948;2023-01-05T02:25:50;8.69;89.60
77496;SHT31;66600;48.378;9.948;2023-01-05T02:30:58;8.79;89.18
77496;SHT31;66600;48.378;9.948;2023-01-05T02:33:49;8.75;89.39
77496;SHT31;66600;48.378;9.948;2023-01-05T02:38:58;8.78;89.38
77496;SHT31;66600;48.378;9.948;2023-01-05T02:41:36;8.73;89.41
77496;SHT31;66600;48.378;9.948;2023-01-05T02:44:03;8.85;88.56
77496;SHT31;66600;48.378;9.948;2023-01-05T02:46:29;8.82;88.97
77496;SHT31;66600;48.378;9.948;2023-01-05T02:48:57;8.90;88.27
77496;SHT31;66600;48.378;9.948;2023-01-05T02:51:38;8.86;88.84
77496;SHT31;66600;48.378;9.948;2023-01-05T02:54:08;8.90;88.31
77496;SHT31;66600;48.378;9.948;2023-01-05T02:56:56;8.90;88.46
77496;SHT31;66600;48.378;9.948;2023-01-05T02:59:29;8.92;88.10
77496;SHT31;66600;48.378;9.948;2023-01-05T03:02:05;8.93;88.21
77496;SHT31;66600;48.378;9.948;2023-01-05T03:04:37;8.98;88.01
77496;SHT31;66600;48.378;9.948;2023-01-05T03:07:09;8.96;88.10
77496;SHT31;66600;48.378;9.948;2023-01-05T03:09:38;8.98;87.84
77496;SHT31;66600;48.378;9.948;2023-01-05T03:12:18;8.98;87.93
77496;SHT31;66600;48.378;9.948;2023-01-05T03:15:27;8.98;87.86
77496;SHT31;66600;48.378;9.948;2023-01-05T03:18:22;9.03;88.06
77496;SHT31;66600;48.378;9.948;2023-01-05T03:20:49;8.95;88.33
77496;SHT31;66600;48.378;9.948;2023-01-05T03:23:17;8.92;88.76
77496;SHT31;66600;48.378;9.948;2023-01-05T03:26:02;8.86;89.13
77496;SHT31;66600;48.378;9.948;2023-01-05T03:28:50;8.76;89.60
77496;SHT31;66600;48.378;9.948;2023-01-05T03:32:00;8.79;89.49
77496;SHT31;66600;48.378;9.948;2023-01-05T03:35:02;8.78;89.42
77496;SHT31;66600;48.378;9.948;2023-01-05T03:38:01;8.81;89.49
77496;SHT31;66600;48.378;9.948;2023-01-05T03:40:29;8.79;89.34
77496;SHT31;66600;48.378;9.948;2023-01-05T03:42:55;8.83;88.92
77496;SHT31;66600;48.378;9.948;2023-01-05T03:45:22;8.83;88.91
77496;SHT31;66600;48.378;9.948;2023-01-05T03:47:48;8.85;88.89
77496;SHT31;66600;48.378;9.948;2023-01-05T03:50:15;8.83;88.84
77496;SHT31;66600;48.378;9.948;2023-01-05T03:52:40;8.86;88.84
77496;SHT31;66600;48.378;9.948;2023-01-05T03:55:06;8.82;88.85
77496;SHT31;66600;48.378;9.948;2023-01-05T03:57:32;8.83;88.86
77496;SHT31;66600;48.378;9.948;2023-01-05T03:59:57;8.81;88.96
77496;SHT31;66600;48.378;9.948;2023-01-05T04:02:22;8.82;88.73
77496;SHT31;66600;48.378;9.948;2023-01-05T04:04:48;8.81;88.88
77496;SHT31;66600;48.378;9.948;2023-01-05T04:07:13;8.82;88.75
77496;SHT31;66600;48.378;9.948;2023-01-05T04:09:38;8.88;88.51
77496;SHT31;66600;48.378;9.948;2023-01-05T04:12:03;8.88;88.60
77496;SHT31;66600;48.378;9.948;2023-01-05T04:14:29;8.92;88.47
77496;SHT31;66600;48.378;9.948;2023-01-05T04:16:54;8.90;88.37
77496;SHT31;66600;48.378;9.948;2023-01-05T04:19:19;8.92;88.58
77496;SHT31;66600;48.378;9.948;2023-01-05T04:21:45;8.85;89.05
77496;SHT31;66600;48.378;9.948;2023-01-05T04:24:10;8.82;89.49
77496;SHT31;66600;48.378;9.948;2023-01-05T04:26:36;8.82;89.36
77496;SHT31;66600;48.378;9.948;2023-01-05T04:29:04;8.81;90.08
77496;SHT31;66600;48.378;9.948;2023-01-05T04:31:30;8.69;90.61
77496;SHT31;66600;48.378;9.948;2023-01-05T04:33:56;8.67;90.84
77496;SHT31;66600;48.378;9.948;2023-01-05T04:36:21;8.65;90.77
77496;SHT31;66600;48.378;9.948;2023-01-05T04:38:46;8.62;91.32
77496;SHT31;66600;48.378;9.948;2023-01-05T04:41:12;8.61;91.32
77496;SHT31;66600;48.378;9.948;2023-01-05T04:43:37;8.57;91.54
77496;SHT31;66600;48.378;9.948;2023-01-05T04:46:03;8.55;91.74
77496;SHT31;66600;48.378;9.948;2023-01-05T04:48:29;8.54;91.49
77496;SHT31;66600;48.378;9.948;2023-01-05T04:50:56;8.52;91.61
77496;SHT31;66600;48.378;9.948;2023-01-05T04:53:22;8.54;91.41
77496;SHT31;66600;48.378;9.948;2023-01-05T04:55:48;8.55;91.07
77496;SHT31;66600;48.378;9.948;2023-01-05T04:58:13;8.57;91.03
77496;SHT31;66600;48.378;9.948;2023-01-05T05:00:39;8.61;90.76
77496;SHT31;66600;48.378;9.948;2023-01-05T05:03:04;8.73;89.97
77496;SHT31;66600;48.378;9.948;2023-01-05T05:05:29;8.69;90.06
77496;SHT31;66600;48.378;9.948;2023-01-05T05:07:54;8.71;89.96
77496;SHT31;66600;48.378;9.948;2023-01-05T05:10:20;8.71;89.68
77496;SHT31;66600;48.378;9.948;2023-01-05T05:12:45;8.69;89.92
77496;SHT31;66600;48.378;9.948;2023-01-05T05:15:11;8.69;89.90
77496;SHT31;66600;48.378;9.948;2023-01-05T05:17:36;8.75;89.67
77496;SHT31;66600;48.378;9.948;2023-01-05T05:20:02;8.72;90.04
77496;SHT31;66600;48.378;9.948;2023-01-05T05:22:27;8.71;90.15
77496;SHT31;66600;48.378;9.948;2023-01-05T05:24:53;8.72;90.10
77496;SHT31;66600;48.378;9.948;2023-01-05T05:27:18;8.71;90.09
77496;SHT31;66600;48.378;9.948;2023-01-05T05:29:43;8.75;90.07
77496;SHT31;66600;48.378;9.948;2023-01-05T05:32:09;8.73;90.39
77496;SHT31;66600;48.378;9.948;2023-01-05T05:34:34;8.73;90.42
77496;SHT31;66600;48.378;9.948;2023-01-05T05:36:59;8.71;90.99
77496;SHT31;66600;48.378;9.948;2023-01-05T05:39:25;8.69;91.05
77496;SHT31;66600;48.378;9.948;2023-01-05T05:41:50;8.69;91.41
77496;SHT31;66600;48.378;9.948;2023-01-05T05:44:15;8.65;91.50
77496;SHT31;66600;48.378;9.948;2023-01-05T05:46:41;8.64;91.60
77496;SHT31;66600;48.378;9.948;2023-01-05T05:49:06;8.61;92.07
77496;SHT31;66600;48.378;9.948;2023-01-05T05:51:33;8.58;92.38
77496;SHT31;66600;48.378;9.948;2023-01-05T05:53:58;8.64;92.12
77496;SHT31;66600;48.378;9.948;2023-01-05T05:56:24;8.54;92.76
77496;SHT31;66600;48.378;9.948;2023-01-05T05:58:49;8.52;92.95
77496;SHT31;66600;48.378;9.948;2023-01-05T06:01:14;8.54;92.61
77496;SHT31;66600;48.378;9.948;2023-01-05T06:03:40;8.48;92.97
77496;SHT31;66600;48.378;9.948;2023-01-05T06:06:05;8.51;92.78
77496;SHT31;66600;48.378;9.948;2023-01-05T06:08:30;8.48;93.12
77496;SHT31;66600;48.378;9.948;2023-01-05T06:10:56;8.48;93.44
77496;SHT31;66600;48.378;9.948;2023-01-05T06:13:21;8.44;93.46
77496;SHT31;66600;48.378;9.948;2023-01-05T06:15:47;8.48;93.33
77496;SHT31;66600;48.378;9.948;2023-01-05T06:18:13;8.48;93.35
77496;SHT31;66600;48.378;9.948;2023-01-05T06:20:38;8.52;93.13
77496;SHT31;66600;48.378;9.948;2023-01-05T06:23:04;8.48;93.37
77496;SHT31;66600;48.378;9.948;2023-01-05T06:25:30;8.51;93.34
77496;SHT31;66600;48.378;9.948;2023-01-05T06:27:57;8.54;93.24
77496;SHT31;66600;48.378;9.948;2023-01-05T06:30:22;8.60;92.96
77496;SHT31;66600;48.378;9.948;2023-01-05T06:32:48;8.54;93.23
77496;SHT31;66600;48.378;9.948;2023-01-05T06:35:13;8.57;92.95
77496;SHT31;66600;48.378;9.948;2023-01-05T06:37:38;8.52;93.42
77496;SHT31;66600;48.378;9.948;2023-01-05T06:40:04;8.50;93.35
77496;SHT31;66600;48.378;9.948;2023-01-05T06:42:30;8.54;93.17
77496;SHT31;66600;48.378;9.948;2023-01-05T06:44:57;8.52;93.18
77496;SHT31;66600;48.378;9.948;2023-01-05T06:47:22;8.57;93.24
77496;SHT31;66600;48.378;9.948;2023-01-05T06:49:48;8.52;93.18
77496;SHT31;66600;48.378;9.948;2023-01-05T06:52:13;8.57;93.24
77496;SHT31;66600;48.378;9.948;2023-01-05T06:54:38;8.51;93.26
77496;SHT31;66600;48.378;9.948;2023-01-05T06:57:03;8.60;93.11
77496;SHT31;66600;48.378;9.948;2023-01-05T06:59:30;8.58;93.07
77496;SHT31;66600;48.378;9.948;2023-01-05T07:01:56;8.57;93.25
77496;SHT31;66600;48.378;9.948;2023-01-05T07:04:21;8.57;93.43
77496;SHT31;66600;48.378;9.948;2023-01-05T07:06:46;8.51;93.95
77496;SHT31;66600;48.378;9.948;2023-01-05T07:09:12;8.45;94.46
77496;SHT31;66600;48.378;9.948;2023-01-05T07:11:37;8.42;94.83
77496;SHT31;66600;48.378;9.948;2023-01-05T07:14:02;8.40;95.01
77496;SHT31;66600;48.378;9.948;2023-01-05T07:16:28;8.38;95.06
77496;SHT31;66600;48.378;9.948;2023-01-05T07:18:53;8.41;95.14
77496;SHT31;66600;48.378;9.948;2023-01-05T07:21:18;8.42;95.08
77496;SHT31;66600;48.378;9.948;2023-01-05T07:23:44;8.40;95.21
77496;SHT31;66600;48.378;9.948;2023-01-05T07:26:09;8.38;95.25
77496;SHT31;66600;48.378;9.948;2023-01-05T07:28:36;8.38;95.24
77496;SHT31;66600;48.378;9.948;2023-01-05T07:31:02;8.41;95.20
77496;SHT31;66600;48.378;9.948;2023-01-05T07:33:28;8.44;95.11
77496;SHT31;66600;48.378;9.948;2023-01-05T07:35:53;8.42;95.10
77496;SHT31;66600;48.378;9.948;2023-01-05T07:38:18;8.42;95.18
77496;SHT31;66600;48.378;9.948;2023-01-05T07:40:44;8.44;95.38
77496;SHT31;66600;48.378;9.948;2023-01-05T07:43:09;8.44;95.27
77496;SHT31;66600;48.378;9.948;2023-01-05T07:45:34;8.44;95.34
77496;SHT31;66600;48.378;9.948;2023-01-05T07:48:01;8.45;95.18
77496;SHT31;66600;48.378;9.948;2023-01-05T07:50:26;8.44;95.31
77496;SHT31;66600;48.378;9.948;2023-01-05T07:52:52;8.44;95.27
77496;SHT31;66600;48.378;9.948;2023-01-05T07:55:17;8.47;95.16
77496;SHT31;66600;48.378;9.948;2023-01-05T07:57:42;8.47;95.18
77496;SHT31;66600;48.378;9.948;2023-01-05T08:00:09;8.47;95.25
77496;SHT31;66600;48.378;9.948;2023-01-05T08:02:34;8.47;95.27
77496;SHT31;66600;48.378;9.948;2023-01-05T08:05:00;8.50;94.88
77496;SHT31;66600;48.378;9.948;2023-01-05T08:07:25;8.47;95.01
77496;SHT31;66600;48.378;9.948;2023-01-05T08:09:50;8.52;94.92
77496;SHT31;66600;48.378;9.948;2023-01-05T08:12:34;8.57;94.60
77496;SHT31;66600;48.378;9.948;2023-01-05T08:15:20;8.55;94.71
77496;SHT31;66600;48.378;9.948;2023-01-05T08:17:45;8.58;94.81
77496;SHT31;66600;48.378;9.948;2023-01-05T08:20:10;8.61;94.62
77496;SHT31;66600;48.378;9.948;2023-01-05T08:22:36;8.61;94.93
77496;SHT31;66600;48.378;9.948;2023-01-05T08:25:01;8.61;94.65
77496;SHT31;66600;48.378;9.948;2023-01-05T08:27:27;8.58;94.97
77496;SHT31;66600;48.378;9.948;2023-01-05T08:29:52;8.55;95.11
77496;SHT31;66600;48.378;9.948;2023-01-05T08:32:17;8.60;94.85
77496;SHT31;66600;48.378;9.948;2023-01-05T08:34:43;8.64;94.93
77496;SHT31;66600;48.378;9.948;2023-01-05T08:37:08;8.65;94.93
77496;SHT31;66600;48.378;9.948;2023-01-05T08:39:33;8.61;95.14
77496;SHT31;66600;48.378;9.948;2023-01-05T08:42:00;8.65;95.07
77496;SHT31;66600;48.378;9.948;2023-01-05T08:44:25;8.69;94.78
77496;SHT31;66600;48.378;9.948;2023-01-05T08:46:51;8.65;94.88
77496;SHT31;66600;48.378;9.948;2023-01-05T08:49:16;8.62;95.03
77496;SHT31;66600;48.378;9.948;2023-01-05T08:51:41;8.62;94.76
77496;SHT31;66600;48.378;9.948;2023-01-05T08:54:07;8.62;94.80
77496;SHT31;66600;48.378;9.948;2023-01-05T08:56:32;8.65;94.60
77496;SHT31;66600;48.378;9.948;2023-01-05T08:58:57;8.64;94.48
77496;SHT31;66600;48.378;9.948;2023-01-05T09:01:23;8.65;94.29
77496;SHT31;66600;48.378;9.948;2023-01-05T09:03:49;8.71;94.11
77496;SHT31;66600;48.378;9.948;2023-01-05T09:06:15;8.69;94.18
77496;SHT31;66600;48.378;9.948;2023-01-05T09:08:41;8.75;94.03
77496;SHT31;66600;48.378;9.948;2023-01-05T09:13:38;8.82;93.43
77496;SHT31;66600;48.378;9.948;2023-01-05T09:16:09;8.89;93.41
77496;SHT31;66600;48.378;9.948;2023-01-05T09:18:35;8.98;92.86
77496;SHT31;66600;48.378;9.948;2023-01-05T09:21:01;9.02;92.28
77496;SHT31;66600;48.378;9.948;2023-01-05T09:23:27;9.10;91.49
77496;SHT31;66600;48.378;9.948;2023-01-05T09:25:52;9.16;91.51
77496;SHT31;66600;48.378;9.948;2023-01-05T09:28:18;9.19;89.88
77496;SHT31;66600;48.378;9.948;2023-01-05T09:30:43;9.23;89.83
77496;SHT31;66600;48.378;9.948;2023-01-05T09:33:08;9.24;89.97
77496;SHT31;66600;48.378;9.948;2023-01-05T09:35:34;9.33;89.73
77496;SHT31;66600;48.378;9.948;2023-01-05T09:37:59;9.38;89.17
77496;SHT31;66600;48.378;9.948;2023-01-05T09:40:24;9.44;88.78
77496;SHT31;66600;48.378;9.948;2023-01-05T09:42:51;9.50;88.18
77496;SHT31;66600;48.378;9.948;2023-01-05T09:45:24;9.59;87.64
77496;SHT31;66600;48.378;9.948;2023-01-05T09:47:51;9.62;85.95
77496;SHT31;66600;48.378;9.948;2023-01-05T09:50:20;9.62;86.65
77496;SHT31;66600;48.378;9.948;2023-01-05T09:52:46;9.54;87.95
77496;SHT31;66600;48.378;9.948;2023-01-05T09:55:14;9.43;88.65
77496;SHT31;66600;48.378;9.948;2023-01-05T09:57:48;9.36;89.47
77496;SHT31;66600;48.378;9.948;2023-01-05T10:00:25;9.28;89.74
77496;SHT31;66600;48.378;9.948;2023-01-05T10:02:56;9.26;90.40
77496;SHT31;66600;48.378;9.948;2023-01-05T10:05:24;9.28;90.08
77496;SHT31;66600;48.378;9.948;2023-01-05T10:07:54;9.28;89.96
77496;SHT31;66600;48.378;9.948;2023-01-05T10:10:50;9.26;89.39
77496;SHT31;66600;48.378;9.948;2023-01-05T10:13:39;9.22;90.25
77496;SHT31;66600;48.378;9.948;2023-01-05T10:16:11;9.28;90.46
77496;SHT31;66600;48.378;9.948;2023-01-05T10:18:38;9.27;90.87
77496;SHT31;66600;48.378;9.948;2023-01-05T10:24:04;9.38;90.25
77496;SHT31;66600;48.378;9.948;2023-01-05T10:26:58;9.44;89.39
77496;SHT31;66600;48.378;9.948;2023-01-05T10:29:46;9.50;89.93
77496;SHT31;66600;48.378;9.948;2023-01-05T10:35:00;9.68;88.85
77496;SHT31;66600;48.378;9.948;2023-01-05T10:45:20;9.81;89.32
77496;SHT31;66600;48.378;9.948;2023-01-05T10:47:47;9.84;89.60
77496;SHT31;66600;48.378;9.948;2023-01-05T10:50:31;9.85;90.34
77496;SHT31;66600;48.378;9.948;2023-01-05T10:52:58;9.81;89.97
77496;SHT31;66600;48.378;9.948;2023-01-05T10:55:24;9.78;90.36
77496;SHT31;66600;48.378;9.948;2023-01-05T10:57:51;9.68;90.26
77496;SHT31;66600;48.378;9.948;2023-01-05T11:00:21;9.79;89.83
77496;SHT31;66600;48.378;9.948;2023-01-05T11:03:03;9.89;89.54
77496;SHT31;66600;48.378;9.948;2023-01-05T11:05:41;10.02;88.84
77496;SHT31;66600;48.378;9.948;2023-01-05T11:08:20;10.02;88.30
77496;SHT31;66600;48.378;9.948;2023-01-05T11:10:56;10.09;87.90
77496;SHT31;66600;48.378;9.948;2023-01-05T11:13:34;10.08;87.97
77496;SHT31;66600;48.378;9.948;2023-01-05T11:16:16;10.10;87.03
77496;SHT31;66600;48.378;9.948;2023-01-05T11:18:48;10.06;87.56
77496;SHT31;66600;48.378;9.948;2023-01-05T11:21:19;9.93;88.66
77496;SHT31;66600;48.378;9.948;2023-01-05T11:23:50;9.88;87.99
77496;SHT31;66600;48.378;9.948;2023-01-05T11:26:26;9.88;88.42
77496;SHT31;66600;48.378;9.948;2023-01-05T11:28:56;9.88;87.44
77496;SHT31;66600;48.378;9.948;2023-01-05T11:31:22;9.82;87.63
77496;SHT31;66600;48.378;9.948;2023-01-05T11:33:54;9.86;87.53
77496;SHT31;66600;48.378;9.948;2023-01-05T11:36:20;9.86;87.00
77496;SHT31;66600;48.378;9.948;2023-01-05T11:38:53;9.85;86.45
77496;SHT31;66600;48.378;9.948;2023-01-05T11:41:20;9.81;86.82
77496;SHT31;66600;48.378;9.948;2023-01-05T11:43:46;9.78;86.51
77496;SHT31;66600;48.378;9.948;2023-01-05T11:46:12;9.78;86.26
77496;SHT31;66600;48.378;9.948;2023-01-05T11:48:49;9.75;86.26
77496;SHT31;66600;48.378;9.948;2023-01-05T11:51:33;9.78;86.38
77496;SHT31;66600;48.378;9.948;2023-01-05T11:53:59;9.81;85.94
77496;SHT31;66600;48.378;9.948;2023-01-05T11:56:25;9.75;86.25
77496;SHT31;66600;48.378;9.948;2023-01-05T11:58:55;9.81;86.18
77496;SHT31;66600;48.378;9.948;2023-01-05T12:04:00;9.81;86.28
77496;SHT31;66600;48.378;9.948;2023-01-05T12:09:25;9.89;85.02
77496;SHT31;66600;48.378;9.948;2023-01-05T12:12:16;9.93;84.97
77496;SHT31;66600;48.378;9.948;2023-01-05T12:20:55;9.98;80.67
77496;SHT31;66600;48.378;9.948;2023-01-05T12:23:39;9.95;80.70
77496;SHT31;66600;48.378;9.948;2023-01-05T12:26:27;9.95;80.14
77496;SHT31;66600;48.378;9.948;2023-01-05T12:29:16;9.98;79.95
77496;SHT31;66600;48.378;9.948;2023-01-05T12:32:14;9.96;79.54
77496;SHT31;66600;48.378;9.948;2023-01-05T12:40:33;10.01;79.63
77496;SHT31;66600;48.378;9.948;2023-01-05T12:43:04;10.08;78.87
77496;SHT31;66600;48.378;9.948;2023-01-05T12:48:24;10.06;78.06
77496;SHT31;66600;48.378;9.948;2023-01-05T12:54:06;10.13;78.20
77496;SHT31;66600;48.378;9.948;2023-01-05T12:56:34;10.16;78.52
77496;SHT31;66600;48.378;9.948;2023-01-05T12:59:23;10.03;78.62
77496;SHT31;66600;48.378;9.948;2023-01-05T13:07:04;10.05;78.95
77496;SHT31;66600;48.378;9.948;2023-01-05T13:09:33;10.02;78.19
77496;SHT31;66600;48.378;9.948;2023-01-05T13:12:03;9.96;78.31
77496;SHT31;66600;48.378;9.948;2023-01-05T13:14:33;9.92;79.46
77496;SHT31;66600;48.378;9.948;2023-01-05T13:17:19;9.91;78.91
77496;SHT31;66600;48.378;9.948;2023-01-05T13:19:48;9.91;79.32
77496;SHT31;66600;48.378;9.948;2023-01-05T13:22:23;9.92;79.15
77496;SHT31;66600;48.378;9.948;2023-01-05T13:24:58;10.05;78.82
77496;SHT31;66600;48.378;9.948;2023-01-05T13:27:25;10.02;78.69
77496;SHT31;66600;48.378;9.948;2023-01-05T13:29:53;9.96;78.77
77496;SHT31;66600;48.378;9.948;2023-01-05T13:35:18;10.01;77.52
77496;SHT31;66600;48.378;9.948;2023-01-05T13:37:51;9.92;78.67
77496;SHT31;66600;48.378;9.948;2023-01-05T13:46:19;9.82;79.52
77496;SHT31;66600;48.378;9.948;2023-01-05T13:49:02;9.81;79.09
77496;SHT31;66600;48.378;9.948;2023-01-05T13:54:04;9.98;78.32
77496;SHT31;66600;48.378;9.948;2023-01-05T13:56:32;9.99;77.74
77496;SHT31;66600;48.378;9.948;2023-01-05T13:59:03;10.08;76.91
77496;SHT31;66600;48.378;9.948;2023-01-05T14:01:36;10.08;74.59
77496;SHT31;66600;48.378;9.948;2023-01-05T14:04:04;10.12;75.48
77496;SHT31;66600;48.378;9.948;2023-01-05T14:06:35;10.02;75.84
77496;SHT31;66600;48.378;9.948;2023-01-05T14:09:14;10.02;75.38
77496;SHT31;66600;48.378;9.948;2023-01-05T14:26:04;9.96;73.14
77496;SHT31;66600;48.378;9.948;2023-01-05T14:36:39;9.93;72.54
77496;SHT31;66600;48.378;9.948;2023-01-05T14:41:51;9.93;71.90
77496;SHT31;66600;48.378;9.948;2023-01-05T14:44:21;9.95;71.17
77496;SHT31;66600;48.378;9.948;2023-01-05T14:46:52;9.92;71.58
77496;SHT31;66600;48.378;9.948;2023-01-05T14:52:00;9.98;71.29
77496;SHT31;66600;48.378;9.948;2023-01-05T14:59:50;9.98;70.39
77496;SHT31;66600;48.378;9.948;2023-01-05T15:02:24;9.98;70.58
77496;SHT31;66600;48.378;9.948;2023-01-05T15:04:53;9.95;70.50
77496;SHT31;66600;48.378;9.948;2023-01-05T15:10:22;9.98;70.69
77496;SHT31;66600;48.378;9.948;2023-01-05T15:15:38;9.95;70.77
77496;SHT31;66600;48.378;9.948;2023-01-05T15:21:24;9.95;70.80
77496;SHT31;66600;48.378;9.948;2023-01-05T15:27:06;9.89;70.86
77496;SHT31;66600;48.378;9.948;2023-01-05T15:32:22;9.88;71.47
77496;SHT31;66600;48.378;9.948;2023-01-05T15:34:54;9.84;71.58
77496;SHT31;66600;48.378;9.948;2023-01-05T15:37:33;9.79;71.61
77496;SHT31;66600;48.378;9.948;2023-01-05T15:40:02;9.81;71.33
77496;SHT31;66600;48.378;9.948;2023-01-05T15:42:38;9.85;71.68
77496;SHT31;66600;48.378;9.948;2023-01-05T15:45:28;9.85;71.54
77496;SHT31;66600;48.378;9.948;2023-01-05T15:47:56;9.85;71.65
77496;SHT31;66600;48.378;9.948;2023-01-05T15:50:36;9.74;72.38
77496;SHT31;66600;48.378;9.948;2023-01-05T15:53:02;9.74;72.65
77496;SHT31;66600;48.378;9.948;2023-01-05T15:55:29;9.72;71.89
77496;SHT31;66600;48.378;9.948;2023-01-05T15:57:59;9.79;71.82
77496;SHT31;66600;48.378;9.948;2023-01-05T16:00:28;9.82;72.15
77496;SHT31;66600;48.378;9.948;2023-01-05T16:02:54;9.75;71.66
77496;SHT31;66600;48.378;9.948;2023-01-05T16:05:31;9.79;71.82
77496;SHT31;66600;48.378;9.948;2023-01-05T16:08:11;9.75;71.69
77496;SHT31;66600;48.378;9.948;2023-01-05T16:13:13;9.72;71.95
77496;SHT31;66600;48.378;9.948;2023-01-05T16:15:40;9.77;72.23
77496;SHT31;66600;48.378;9.948;2023-01-05T16:18:12;9.71;72.56
77496;SHT31;66600;48.378;9.948;2023-01-05T16:20:39;9.74;72.27
77496;SHT31;66600;48.378;9.948;2023-01-05T16:23:14;9.68;72.80
77496;SHT31;66600;48.378;9.948;2023-01-05T16:25:47;9.62;73.37
77496;SHT31;66600;48.378;9.948;2023-01-05T16:28:18;9.65;73.43
77496;SHT31;66600;48.378;9.948;2023-01-05T16:30:45;9.59;75.60
77496;SHT31;66600;48.378;9.948;2023-01-05T16:33:33;9.57;74.40
77496;SHT31;66600;48.378;9.948;2023-01-05T16:38:31;9.47;74.84
77496;SHT31;66600;48.378;9.948;2023-01-05T16:53:42;9.16;76.55
77496;SHT31;66600;48.378;9.948;2023-01-05T16:58:59;9.20;76.37
77496;SHT31;66600;48.378;9.948;2023-01-05T17:01:39;9.23;76.08
77496;SHT31;66600;48.378;9.948;2023-01-05T17:04:13;9.16;76.92
77496;SHT31;66600;48.378;9.948;2023-01-05T17:06:41;9.22;76.32
77496;SHT31;66600;48.378;9.948;2023-01-05T17:09:29;9.28;76.00
77496;SHT31;66600;48.378;9.948;2023-01-05T17:11:54;9.27;76.23
77496;SHT31;66600;48.378;9.948;2023-01-05T17:14:21;9.36;75.95
77496;SHT31;66600;48.378;9.948;2023-01-05T17:16:47;9.28;76.38
77496;SHT31;66600;48.378;9.948;2023-01-05T17:19:17;9.28;76.52
77496;SHT31;66600;48.378;9.948;2023-01-05T17:21:50;9.36;76.01
77496;SHT31;66600;48.378;9.948;2023-01-05T17:24:16;9.38;75.89
77496;SHT31;66600;48.378;9.948;2023-01-05T17:26:42;9.37;75.85
77496;SHT31;66600;48.378;9.948;2023-01-05T17:29:25;9.45;75.35
77496;SHT31;66600;48.378;9.948;2023-01-05T17:31:51;9.43;75.60
77496;SHT31;66600;48.378;9.948;2023-01-05T17:34:17;9.41;75.76
77496;SHT31;66600;48.378;9.948;2023-01-05T17:36:43;9.38;75.90
77496;SHT31;66600;48.378;9.948;2023-01-05T17:39:14;9.38;75.87
77496;SHT31;66600;48.378;9.948;2023-01-05T17:41:40;9.38;75.98
77496;SHT31;66600;48.378;9.948;2023-01-05T17:44:05;9.31;77.73
77496;SHT31;66600;48.378;9.948;2023-01-05T17:46:32;9.20;77.53
77496;SHT31;66600;48.378;9.948;2023-01-05T17:49:00;9.05;78.08
77496;SHT31;66600;48.378;9.948;2023-01-05T17:51:29;8.95;78.41
77496;SHT31;66600;48.378;9.948;2023-01-05T17:53:55;8.96;78.39
77496;SHT31;66600;48.378;9.948;2023-01-05T17:56:21;8.86;79.37
77496;SHT31;66600;48.378;9.948;2023-01-05T17:58:46;8.72;79.71
77496;SHT31;66600;48.378;9.948;2023-01-05T18:01:12;8.60;80.69
77496;SHT31;66600;48.378;9.948;2023-01-05T18:03:37;8.47;81.42
77496;SHT31;66600;48.378;9.948;2023-01-05T18:06:03;8.34;81.75
77496;SHT31;66600;48.378;9.948;2023-01-05T18:08:28;8.29;81.46
77496;SHT31;66600;48.378;9.948;2023-01-05T18:10:53;8.26;81.80
77496;SHT31;66600;48.378;9.948;2023-01-05T18:13:19;8.24;81.84
77496;SHT31;66600;48.378;9.948;2023-01-05T18:15:45;8.20;81.77
77496;SHT31;66600;48.378;9.948;2023-01-05T18:18:12;8.26;81.62
77496;SHT31;66600;48.378;9.948;2023-01-05T18:20:41;8.29;81.72
77496;SHT31;66600;48.378;9.948;2023-01-05T18:23:07;8.37;81.60